Observations for SAINT-BRIEUC ARMOR, France (LFRT)

LFRT 242030Z AUTO 23009KT 200V270 9999 OVC015 12/10 Q1015   
LFRT 242000Z AUTO 24009G19KT 200V270 9999 OVC016 12/10 Q1015
LFRT 241930Z AUTO 24009KT 200V260 9999 BKN021 BKN031 BKN039 13/10 Q1015 
LFRT 241900Z AUTO 23009KT 180V260 9999 BKN019 BKN027 BKN043 13/09 Q1015 
LFRT 241830Z AUTO 24008KT 180V270 9999 BKN020 OVC028 14/10 Q1015
LFRT 241800Z AUTO 24009KT 200V260 9999 OVC021 14/10 Q1015   
LFRT 241730Z AUTO 24010KT 9999 OVC024 15/10 Q1016   
LFRT 241700Z AUTO 24012KT 190V270 9999 BKN026 15/10 Q1015   
LFRT 241630Z AUTO 23008KT 180V260 9999 OVC029 16/09 Q1016   
LFRT 241600Z AUTO 25015KT 9999 BKN030 16/10 Q1016   
LFRT 241530Z AUTO 26015KT 210V290 9999 BKN035 18/09 Q1016   
LFRT 241500Z AUTO 23011KT 190V270 9999 SCT040 18/09 Q1016   
LFRT 241430Z AUTO 22008KT 150V290 9999 FEW040 19/09 Q1016   
LFRT 241400Z AUTO 23010KT 170V270 9999 FEW038 19/09 Q1016   
LFRT 241330Z AUTO 23010KT 170V270 9999 SCT035 18/09 Q1017   
LFRT 241300Z AUTO 23009KT 160V270 9999 BKN030 17/10 Q1017   
LFRT 241230Z AUTO 22010KT 180V260 9999 SCT019 BKN024 BKN190 17/10 Q1018 
LFRT 241200Z AUTO 22008KT 170V260 9999 OVC019 16/11 Q1018   
LFRT 241130Z AUTO 22008KT 180V270 9999 OVC020 16/11 Q1018   
LFRT 241100Z AUTO 23008KT 190V260 9999 BKN019 OVC028 15/11 Q1019
LFRT 241030Z AUTO 20008KT 170V250 9999 FEW019 SCT026 16/11 Q1019
LFRT 241000Z AUTO 22006KT 150V260 9999 OVC025 16/11 Q1019   
LFRT 240930Z AUTO 23006KT 170V270 9999 BKN023 BKN028 BKN037 14/10 Q1019 
LFRT 240900Z AUTO 23006KT 190V270 9999 FEW014 BKN029 OVC036 13/10 Q1019 
LFRT 240830Z AUTO 22006KT 130V260 9999 OVC035 12/09 Q1019   
LFRT 240800Z AUTO 22006KT 170V260 9999 FEW021 OVC031 11/09 Q1020
LFRT 240730Z AUTO 23007KT 190V260 9999 OVC030 11/09 Q1020   
LFRT 240700Z AUTO 23007KT 180V260 9999 OVC030 11/09 Q1019   
LFRT 240630Z AUTO 23006KT 180V260 9999 FEW016 OVC030 10/08 Q1019
LFRT 240600Z AUTO 21005KT 160V250 9999 BKN012 OVC029 10/08 Q1019
LFRT 232100Z AUTO VRB02KT CAVOK 09/06 Q1021 
LFRT 232030Z AUTO 27002KT CAVOK 08/06 Q1021 
LFRT 232000Z AUTO VRB02KT 9999 FEW034 09/06 Q1021